TimeEST,TemperatureF,Dew PointF,Humidity,Sea Level PressureIn,VisibilityMPH,Wind Direction,Wind SpeedMPH,Gust SpeedMPH,PrecipitationIn,Events,Conditions,WindDirDegrees,DateUTC
12:42 AM,39.2,35.6,87,29.64,10.0,WNW,12.7,24.2,0.03,Rain,Light Rain,290,2012-01-27 05:42:00
12:56 AM,39.0,36.0,89,29.64,10.0,WNW,8.1,-,0.03,Rain,Light Rain,290,2012-01-27 05:56:00
1:56 AM,37.9,35.1,89,29.70,10.0,West,12.7,-,0.00,,Overcast,270,2012-01-27 06:56:00
2:56 AM,37.9,35.1,89,29.71,10.0,WNW,9.2,-,N/A,,Overcast,290,2012-01-27 07:56:00
3:56 AM,37.9,35.1,89,29.74,10.0,West,10.4,-,0.00,Rain,Light Rain,280,2012-01-27 08:56:00
4:56 AM,37.9,35.1,89,29.77,10.0,West,12.7,-,0.00,,Overcast,270,2012-01-27 09:56:00
5:56 AM,37.9,36.0,93,29.80,10.0,West,4.6,-,N/A,,Overcast,270,2012-01-27 10:56:00
6:41 AM,39.2,35.6,87,29.82,10.0,WSW,9.2,-,N/A,,Overcast,250,2012-01-27 11:41:00
6:56 AM,39.0,34.0,82,29.85,10.0,West,15.0,23.0,N/A,,Overcast,260,2012-01-27 11:56:00
7:56 AM,37.9,34.0,86,29.88,6.0,West,13.8,-,N/A,,Overcast,260,2012-01-27 12:56:00
8:56 AM,37.9,33.1,83,29.91,5.0,West,10.4,-,N/A,,Haze,280,2012-01-27 13:56:00
9:56 AM,39.0,33.1,79,29.94,5.0,WNW,12.7,20.7,N/A,,Haze,290,2012-01-27 14:56:00
10:56 AM,37.9,33.1,83,29.97,5.0,West,15.0,-,N/A,,Haze,280,2012-01-27 15:56:00
11:56 AM,37.9,33.1,83,29.98,5.0,West,9.2,-,N/A,,Haze,270,2012-01-27 16:56:00
12:56 PM,37.9,33.1,83,29.98,5.0,WNW,11.5,-,N/A,,Haze,290,2012-01-27 17:56:00
1:56 PM,37.9,32.0,79,30.00,5.0,West,10.4,-,N/A,,Haze,280,2012-01-27 18:56:00
2:56 PM,39.0,33.1,79,30.01,6.0,West,9.2,-,N/A,,Haze,260,2012-01-27 19:56:00
3:56 PM,39.0,32.0,76,30.04,6.0,West,5.8,-,N/A,,Haze,270,2012-01-27 20:56:00
4:56 PM,39.0,30.0,70,30.05,7.0,WSW,5.8,-,N/A,,Overcast,240,2012-01-27 21:56:00
5:56 PM,39.0,30.0,70,30.05,8.0,WSW,4.6,-,N/A,,Overcast,240,2012-01-27 22:56:00
6:56 PM,39.0,30.9,73,30.09,9.0,SSW,3.5,-,N/A,,Overcast,200,2012-01-27 23:56:00
7:56 PM,39.0,30.9,73,30.08,8.0,South,3.5,-,N/A,,Overcast,190,2012-01-28 00:56:00
8:56 PM,37.9,30.9,76,30.09,9.0,South,5.8,-,N/A,,Overcast,190,2012-01-28 01:56:00
9:56 PM,37.9,30.9,76,30.07,9.0,South,3.5,-,N/A,,Mostly Cloudy,180,2012-01-28 02:56:00
10:56 PM,37.0,30.9,79,30.04,7.0,SE,4.6,-,N/A,,Mostly Cloudy,130,2012-01-28 03:56:00
11:40 PM,37.4,30.2,75,30.03,7.0,Calm,Calm,-,N/A,,Mostly Cloudy,0,2012-01-28 04:40:00
11:56 PM,37.0,30.9,79,30.04,8.0,South,4.6,-,N/A,,Mostly Cloudy,190,2012-01-28 04:56:00